Time;durP1;ratioP1;P1;durP2;ratioP2;P2;SDS_P1;SDS_P2;PMS_P1;PMS_P2;Temp;Humidity;BMP_temperature;BMP_pressure;BME280_temperature;BME280_humidity;BME280_pressure;Samples;Min_cycle;Max_cycle;Signal;HPM_P1;HPM_P2
2023/10/14 00:01:31;;;;;;;6.28;1.10;;;11.60;99.90;;;;;;5075136;28;20131;-21
2023/10/14 00:03:57;;;;;;;7.95;1.77;;;11.70;99.90;;;;;;5074775;28;20063;-21
2023/10/14 00:06:24;;;;;;;9.93;1.13;;;11.60;99.90;;;;;;5075140;28;20051;-21
2023/10/14 00:11:16;;;;;;;12.77;1.55;;;11.50;99.90;;;;;;5074982;28;20491;-21
2023/10/14 00:13:49;;;;;;;9.90;2.55;;;11.40;99.90;;;;;;5074954;28;20049;-20
2023/10/14 00:18:59;;;;;;;10.23;1.40;;;11.20;99.90;;;;;;5074943;28;20044;-20
2023/10/14 00:21:26;;;;;;;9.30;1.35;;;11.10;99.90;;;;;;5074280;28;20048;-20
2023/10/14 00:23:57;;;;;;;12.13;1.75;;;10.80;99.90;;;;;;5074834;28;20049;-20
2023/10/14 00:26:27;;;;;;;11.15;1.67;;;10.80;99.90;;;;;;5057824;28;20048;-20
2023/10/14 00:31:38;;;;;;;11.10;1.95;;;10.50;99.90;;;;;;5074691;28;20135;-20
2023/10/14 00:34:04;;;;;;;9.40;1.50;;;10.30;99.90;;;;;;5075172;28;20130;-20
2023/10/14 00:36:34;;;;;;;15.63;2.42;;;10.10;99.90;;;;;;5073385;28;20067;-20
2023/10/14 00:39:12;;;;;;;11.57;1.75;;;10.10;99.90;;;;;;5074126;28;20044;-20
2023/10/14 00:41:38;;;;;;;9.15;1.42;;;10.10;99.90;;;;;;5075142;28;20097;-20
2023/10/14 00:44:04;;;;;;;9.30;1.95;;;10.00;99.90;;;;;;5074478;28;20479;-20
2023/10/14 00:46:32;;;;;;;19.67;2.83;;;9.80;99.90;;;;;;5074457;28;20055;-20
2023/10/14 00:49:05;;;;;;;10.30;1.73;;;9.70;99.90;;;;;;5074700;28;20040;-20
2023/10/14 00:51:34;;;;;;;16.80;2.08;;;9.60;99.90;;;;;;5074405;28;20048;-20
2023/10/14 00:54:06;;;;;;;12.00;2.15;;;9.50;99.90;;;;;;5073409;28;20210;-20
2023/10/14 00:56:40;;;;;;;14.63;1.63;;;9.50;99.90;;;;;;5030762;28;1219697;-20
2023/10/14 00:59:06;;;;;;;10.98;2.58;;;9.40;99.90;;;;;;5074927;28;20513;-20
2023/10/14 01:01:55;;;;;;;15.95;1.85;;;9.30;99.90;;;;;;5075098;28;20051;-20
2023/10/14 01:04:18;;;;;;;10.52;2.05;;;9.20;99.90;;;;;;5075565;28;20386;-20
2023/10/14 01:09:48;;;;;;;13.25;2.17;;;9.10;99.90;;;;;;5075038;28;20092;-20
2023/10/14 01:12:16;;;;;;;11.23;2.08;;;9.00;99.90;;;;;;5075292;28;20055;-19
2023/10/14 01:14:52;;;;;;;11.43;1.80;;;;;;;;;;5073739;28;20048;-19
2023/10/14 01:19:53;;;;;;;17.15;2.63;;;8.60;99.90;;;;;;5075418;28;20060;-19
2023/10/14 01:22:19;;;;;;;14.20;2.15;;;8.70;99.90;;;;;;5074804;28;20060;-19
2023/10/14 01:24:45;;;;;;;11.15;2.25;;;8.60;99.90;;;;;;5073703;28;20063;-19
2023/10/14 01:27:13;;;;;;;16.88;1.70;;;8.70;99.90;;;;;;5074820;28;20044;-19
2023/10/14 01:29:39;;;;;;;14.15;2.90;;;8.60;99.90;;;;;;5073625;28;20500;-19
2023/10/14 01:32:48;;;;;;;10.35;2.03;;;8.60;99.90;;;;;;5074527;28;20088;-20
2023/10/14 01:37:46;;;;;;;14.80;1.70;;;8.50;99.90;;;;;;5074504;28;20538;-20
2023/10/14 01:42:57;;;;;;;9.52;1.30;;;8.30;99.90;;;;;;5075236;28;20052;-19
2023/10/14 01:45:39;;;;;;;12.77;2.25;;;8.10;99.90;;;;;;5057310;28;20103;-20
2023/10/14 01:50:38;;;;;;;14.23;1.75;;;8.00;99.90;;;;;;5075086;28;20505;-19
2023/10/14 01:53:11;;;;;;;9.43;1.42;;;8.10;99.90;;;;;;5074404;28;20102;-19
2023/10/14 01:55:41;;;;;;;21.20;2.83;;;8.20;99.90;;;;;;5072702;28;20049;-20
2023/10/14 01:58:13;;;;;;;17.85;1.92;;;8.30;99.90;;;;;;5074077;28;20053;-20
2023/10/14 02:00:39;;;;;;;6.57;0.85;;;8.30;99.90;;;;;;5073994;28;20475;-19
2023/10/14 02:03:08;;;;;;;7.30;1.40;;;8.40;99.90;;;;;;5074829;28;20048;-19
2023/10/14 02:05:40;;;;;;;8.18;1.23;;;8.40;99.90;;;;;;5073963;28;20059;-19
2023/10/14 02:08:15;;;;;;;10.98;1.75;;;8.40;99.90;;;;;;5073677;28;20051;-20
2023/10/14 02:10:47;;;;;;;13.32;3.17;;;8.40;99.90;;;;;;5073943;28;20052;-20
2023/10/14 02:13:19;;;;;;;13.02;1.17;;;8.50;99.90;;;;;;5073827;28;20052;-20
2023/10/14 02:15:49;;;;;;;9.13;2.10;;;8.60;99.90;;;;;;5073790;28;20040;-20
2023/10/14 02:18:20;;;;;;;11.10;2.15;;;8.60;99.90;;;;;;5074133;28;20049;-20
2023/10/14 02:20:57;;;;;;;17.63;2.65;;;8.70;99.90;;;;;;5056990;28;20052;-20
2023/10/14 02:23:27;;;;;;;7.35;1.50;;;8.70;99.90;;;;;;5074345;28;20091;-20
2023/10/14 02:26:00;;;;;;;9.43;1.67;;;8.70;99.90;;;;;;5073679;28;20491;-20
2023/10/14 02:28:42;;;;;;;10.38;1.42;;;8.70;99.90;;;;;;5074319;28;20048;-20
2023/10/14 02:31:17;;;;;;;9.02;1.80;;;8.70;99.90;;;;;;5074322;28;20131;-20
2023/10/14 02:33:47;;;;;;;9.10;1.85;;;8.70;99.90;;;;;;5072409;28;20052;-20
2023/10/14 02:36:17;;;;;;;9.70;1.50;;;8.70;99.90;;;;;;5072791;28;20044;-20
2023/10/14 02:38:53;;;;;;;11.13;1.38;;;8.80;99.90;;;;;;5073598;28;20106;-20
2023/10/14 02:41:26;;;;;;;11.23;2.05;;;8.70;99.90;;;;;;5073466;28;20382;-20
2023/10/14 02:44:27;;;;;;;;;;;8.70;99.90;;;;;;5073360;28;20052;-20
2023/10/14 02:46:45;;;;;;;11.50;2.13;;;8.60;99.90;;;;;;5072140;28;20274;-20
2023/10/14 02:49:14;;;;;;;11.30;1.85;;;8.50;99.90;;;;;;5073561;28;20482;-20
2023/10/14 02:51:44;;;;;;;16.52;1.83;;;8.50;99.90;;;;;;5073165;28;20406;-20
2023/10/14 02:54:54;;;;;;;14.73;1.45;;;8.50;99.90;;;;;;5072251;28;20406;-20
2023/10/14 03:04:57;;;;;;;10.57;2.15;;;8.80;99.90;;;;;;5074280;28;20060;-20
2023/10/14 03:07:34;;;;;;;14.43;1.48;;;8.70;99.90;;;;;;5073956;28;20379;-20
2023/10/14 03:12:39;;;;;;;12.63;1.58;;;8.70;99.90;;;;;;5073232;28;20056;-20
2023/10/14 03:15:19;;;;;;;14.98;2.90;;;8.60;99.90;;;;;;5073144;28;20048;-20
2023/10/14 03:18:00;;;;;;;10.73;1.63;;;8.40;99.90;;;;;;5074136;28;20052;-20
2023/10/14 03:23:11;;;;;;;13.38;1.55;;;8.40;99.90;;;;;;5073215;28;20408;-21
2023/10/14 03:25:41;;;;;;;14.43;1.92;;;8.50;99.90;;;;;;5072255;28;20085;-20
2023/10/14 03:28:14;;;;;;;13.90;1.73;;;8.40;99.90;;;;;;5071946;28;20074;-20
2023/10/14 03:30:44;;;;;;;;;;;8.30;99.90;;;;;;5074202;28;20048;-21
2023/10/14 03:33:14;;;;;;;14.18;2.40;;;8.10;99.90;;;;;;5073160;28;20313;-20
2023/10/14 03:35:43;;;;;;;16.33;1.90;;;8.00;99.90;;;;;;5072612;28;20045;-20
2023/10/14 03:38:15;;;;;;;13.43;1.77;;;8.10;99.90;;;;;;5073059;28;20055;-21
2023/10/14 03:43:15;;;;;;;9.70;1.23;;;8.40;99.90;;;;;;5075725;28;20283;-21
2023/10/14 03:46:15;;;;;;;12.25;2.05;;;8.40;99.90;;;;;;5077411;28;20051;-20
2023/10/14 03:48:45;;;;;;;12.50;1.70;;;8.50;99.90;;;;;;5073449;28;20376;-20
2023/10/14 03:51:25;;;;;;;13.82;2.03;;;8.60;99.90;;;;;;5076838;28;20138;-20
2023/10/14 03:54:12;;;;;;;14.85;1.90;;;8.80;99.90;;;;;;5060090;28;20056;-21
2023/10/14 03:56:45;;;;;;;11.18;2.08;;;9.00;99.90;;;;;;5074817;28;20067;-21
2023/10/14 03:59:18;;;;;;;9.98;2.55;;;9.20;99.90;;;;;;5075470;28;20558;-21
2023/10/14 04:01:45;;;;;;;6.75;1.80;;;9.40;99.90;;;;;;5076340;28;20044;-21
2023/10/14 04:04:17;;;;;;;16.02;2.28;;;9.80;99.90;;;;;;5076783;28;20075;-21
2023/10/14 04:09:45;;;;;;;12.07;1.33;;;9.70;99.90;;;;;;5075531;28;20052;-21
2023/10/14 04:15:47;;;;;;;13.82;1.55;;;9.50;99.90;;;;;;5075687;28;20057;-21
2023/10/14 04:17:52;;;;;;;12.80;1.80;;;9.50;99.90;;;;;;5068349;28;20059;-21
2023/10/14 04:20:30;;;;;;;12.10;1.85;;;9.60;99.90;;;;;;5075756;28;20051;-21
2023/10/14 04:22:57;;;;;;;16.00;1.60;;;9.70;99.90;;;;;;5075216;28;20052;-21
2023/10/14 04:25:38;;;;;;;12.48;2.08;;;9.80;99.90;;;;;;5076706;28;20056;-22
2023/10/14 04:30:42;;;;;;;13.55;1.95;;;9.70;99.90;;;;;;5075694;28;20053;-21
2023/10/14 04:33:19;;;;;;;14.27;2.00;;;9.50;99.90;;;;;;5075591;28;20052;-22
2023/10/14 04:35:59;;;;;;;8.13;0.85;;;9.40;99.90;;;;;;5075651;28;20052;-22
2023/10/14 04:38:30;;;;;;;12.32;1.88;;;9.20;99.90;;;;;;5076011;28;20056;-22
2023/10/14 04:41:03;;;;;;;14.48;1.70;;;9.00;99.90;;;;;;5076253;28;20508;-22
2023/10/14 04:45:55;;;;;;;11.20;1.50;;;8.90;99.90;;;;;;5076020;28;20050;-22
2023/10/14 04:51:06;;;;;;;8.30;1.38;;;8.80;99.90;;;;;;5074819;28;20094;-22
2023/10/14 04:53:32;;;;;;;14.97;2.60;;;8.70;99.90;;;;;;5074252;28;20131;-22
2023/10/14 04:56:04;;;;;;;14.70;2.25;;;8.70;99.90;;;;;;5073637;28;20059;-22
2023/10/14 04:58:32;;;;;;;12.32;1.85;;;8.60;99.90;;;;;;5075325;28;20122;-22
2023/10/14 05:01:03;;;;;;;11.93;1.88;;;8.70;99.90;;;;;;5074443;28;20055;-22
2023/10/14 05:03:29;;;;;;;14.10;2.10;;;8.60;99.90;;;;;;5075201;28;20048;-22
2023/10/14 05:05:56;;;;;;;9.52;1.45;;;8.60;99.90;;;;;;5075375;28;20086;-22
2023/10/14 05:08:24;;;;;;;14.25;2.15;;;8.60;99.90;;;;;;5074084;28;20051;-22
2023/10/14 05:10:51;;;;;;;11.35;1.70;;;8.60;99.90;;;;;;5074045;28;20459;-22
2023/10/14 05:13:25;;;;;;;12.73;2.10;;;8.50;99.90;;;;;;5074919;28;20048;-22
2023/10/14 05:16:03;;;;;;;28.13;4.18;;;8.60;99.90;;;;;;5074656;28;20045;-22
2023/10/14 05:18:29;;;;;;;13.73;3.13;;;8.60;99.90;;;;;;5074318;28;20045;-22
2023/10/14 05:23:42;;;;;;;13.90;3.10;;;8.60;99.90;;;;;;5043511;28;20558;-23
2023/10/14 05:26:08;;;;;;;12.30;1.90;;;8.60;99.90;;;;;;5075510;28;20037;-23
2023/10/14 05:28:36;;;;;;;11.30;2.63;;;8.70;99.90;;;;;;5074633;28;20056;-22
2023/10/14 05:31:08;;;;;;;12.13;1.85;;;8.70;99.90;;;;;;5074613;28;20052;-22
2023/10/14 05:33:37;;;;;;;16.38;2.55;;;8.70;99.90;;;;;;5074447;28;20052;-23
2023/10/14 05:36:05;;;;;;;14.40;1.67;;;8.70;99.90;;;;;;5074724;28;20049;-23
2023/10/14 05:38:31;;;;;;;17.05;2.10;;;8.70;99.90;;;;;;5074439;28;20127;-23
2023/10/14 05:41:00;;;;;;;12.60;1.83;;;8.70;99.90;;;;;;5074408;28;20047;-22
2023/10/14 05:43:27;;;;;;;17.30;2.10;;;8.80;99.90;;;;;;5074397;28;20056;-22
2023/10/14 05:45:53;;;;;;;17.42;3.33;;;8.60;99.90;;;;;;5073353;28;20056;-23
2023/10/14 05:48:27;;;;;;;11.38;2.08;;;8.70;99.90;;;;;;5074249;28;20048;-23
2023/10/14 05:50:56;;;;;;;16.60;3.28;;;8.70;99.90;;;;;;5074281;28;20058;-22
2023/10/14 05:53:25;;;;;;;16.00;1.75;;;8.70;99.90;;;;;;5073744;28;20045;-22
2023/10/14 05:56:14;;;;;;;17.05;3.17;;;8.70;99.90;;;;;;5055977;28;20053;-23
2023/10/14 05:58:41;;;;;;;12.93;1.52;;;8.50;99.90;;;;;;5074414;28;20048;-23
2023/10/14 06:01:12;;;;;;;10.95;1.40;;;8.40;99.90;;;;;;5073967;28;20040;-23
2023/10/14 06:03:40;;;;;;;16.55;2.35;;;8.40;99.90;;;;;;5073651;28;20080;-23
2023/10/14 06:06:09;;;;;;;11.88;1.60;;;8.20;99.90;;;;;;5072508;28;20430;-23
2023/10/14 06:08:38;;;;;;;6.38;1.13;;;8.20;99.90;;;;;;5072997;28;20048;-23
2023/10/14 06:11:05;;;;;;;16.00;1.75;;;8.30;99.90;;;;;;5073904;28;20048;-23
2023/10/14 06:13:32;;;;;;;16.48;2.95;;;8.40;99.90;;;;;;5073888;28;20198;-23
2023/10/14 06:16:00;;;;;;;10.35;2.25;;;8.50;99.90;;;;;;5073798;28;20045;-23
2023/10/14 06:18:29;;;;;;;11.60;1.30;;;8.50;99.90;;;;;;5073824;28;20118;-23
2023/10/14 06:20:57;;;;;;;13.35;1.65;;;8.40;99.90;;;;;;5073810;28;20047;-23
2023/10/14 06:23:26;;;;;;;11.55;1.30;;;8.40;99.90;;;;;;5073742;28;20051;-23
2023/10/14 06:25:56;;;;;;;13.68;2.25;;;8.40;99.90;;;;;;5072465;28;20474;-23
2023/10/14 06:28:22;;;;;;;10.50;1.73;;;8.40;99.90;;;;;;5073689;28;20048;-23
2023/10/14 06:30:48;;;;;;;13.35;2.08;;;8.40;99.90;;;;;;5073775;28;20044;-23
2023/10/14 06:33:14;;;;;;;17.35;2.10;;;8.50;99.90;;;;;;5073658;28;20044;-23
2023/10/14 06:35:43;;;;;;;13.20;2.40;;;8.50;99.90;;;;;;5073541;28;20040;-23
2023/10/14 06:38:10;;;;;;;15.20;1.60;;;8.60;99.90;;;;;;5073589;28;20075;-24
2023/10/14 06:40:37;;;;;;;14.27;1.90;;;8.70;99.90;;;;;;5072447;28;20118;-24
2023/10/14 06:43:09;;;;;;;8.95;1.40;;;8.70;99.90;;;;;;5072352;28;20517;-23
2023/10/14 06:45:37;;;;;;;15.18;1.40;;;8.80;99.90;;;;;;5073203;28;20131;-24
2023/10/14 06:48:10;;;;;;;16.27;2.00;;;8.80;99.90;;;;;;5073783;28;20044;-24
2023/10/14 06:50:42;;;;;;;;;;;8.80;99.90;;;;;;5073768;28;20127;-24
2023/10/14 06:53:08;;;;;;;11.30;1.80;;;8.90;99.90;;;;;;5072332;28;19920;-24
2023/10/14 06:55:39;;;;;;;10.75;1.73;;;9.10;99.90;;;;;;5073021;28;20136;-24
2023/10/14 06:58:11;;;;;;;16.67;2.70;;;9.30;99.90;;;;;;5072759;28;20055;-24
2023/10/14 07:00:42;;;;;;;12.00;1.92;;;9.40;99.90;;;;;;5073236;28;20387;-24
2023/10/14 07:03:14;;;;;;;14.90;2.97;;;9.40;99.90;;;;;;5073803;28;20047;-24
2023/10/14 07:05:46;;;;;;;19.48;2.80;;;9.50;99.90;;;;;;5072139;28;20168;-24
2023/10/14 07:08:13;;;;;;;14.50;2.25;;;9.60;99.90;;;;;;5073349;28;20074;-24
2023/10/14 07:10:39;;;;;;;13.75;2.05;;;9.70;99.90;;;;;;5073862;28;20044;-24
2023/10/14 07:13:05;;;;;;;13.43;1.92;;;9.80;99.90;;;;;;5073263;28;20045;-24
2023/10/14 07:15:36;;;;;;;14.93;2.65;;;9.90;99.90;;;;;;5075812;28;20090;-24
2023/10/14 07:18:02;;;;;;;11.52;2.53;;;10.00;99.90;;;;;;5078063;28;20390;-24
2023/10/14 07:20:29;;;;;;;14.23;2.38;;;10.20;99.90;;;;;;5077934;28;20142;-24
2023/10/14 07:23:05;;;;;;;14.82;1.65;;;10.40;99.90;;;;;;5076120;28;20410;-24
2023/10/14 07:25:35;;;;;;;14.38;2.05;;;10.60;99.90;;;;;;5077041;28;20041;-24
2023/10/14 07:28:07;;;;;;;12.02;2.35;;;10.80;18.50;;;;;;5076941;28;20127;-24
2023/10/14 07:30:36;;;;;;;8.48;1.85;;;11.00;76.30;;;;;;5075772;28;20044;-24
2023/10/14 07:33:06;;;;;;;6.82;1.42;;;11.30;1.00;;;;;;5075866;28;20075;-24
2023/10/14 07:35:32;;;;;;;19.67;2.50;;;11.30;1.00;;;;;;5076691;28;20040;-24
2023/10/14 07:37:58;;;;;;;7.82;1.77;;;11.10;1.00;;;;;;5076781;28;20398;-24
2023/10/14 07:40:24;;;;;;;15.00;2.47;;;10.90;99.90;;;;;;5076713;28;20074;-25
2023/10/14 07:42:54;;;;;;;17.95;2.47;;;10.80;1.00;;;;;;5075469;28;20084;-25
2023/10/14 07:45:33;;;;;;;11.82;1.40;;;10.70;1.00;;;;;;5076359;28;20471;-25
2023/10/14 07:48:00;;;;;;;8.07;1.75;;;10.90;1.00;;;;;;5076091;28;20068;-25
2023/10/14 07:50:31;;;;;;;11.52;2.00;;;11.00;99.90;;;;;;5075920;28;20044;-26
2023/10/14 07:53:07;;;;;;;12.30;2.13;;;11.20;1.00;;;;;;5077397;28;20075;-25
2023/10/14 07:55:43;;;;;;;7.15;1.20;;;11.30;99.90;;;;;;5076389;28;20056;-25
2023/10/14 07:58:13;;;;;;;10.63;1.73;;;11.30;99.90;;;;;;5075392;28;20056;-25
2023/10/14 08:00:40;;;;;;;5.63;1.27;;;11.20;99.90;;;;;;5074780;28;20048;-25
2023/10/14 08:03:15;;;;;;;12.05;2.20;;;11.20;1.00;;;;;;5076413;28;20060;-25
2023/10/14 08:05:41;;;;;;;8.65;1.98;;;11.20;1.00;;;;;;5076392;28;20256;-26
2023/10/14 08:08:09;;;;;;;11.68;1.85;;;11.30;1.00;;;;;;5074931;28;20045;-26
2023/10/14 08:10:42;;;;;;;6.50;1.60;;;11.30;1.00;;;;;;5076194;28;20056;-25
2023/10/14 08:13:12;;;;;;;13.15;2.20;;;11.40;99.90;;;;;;5076193;28;20145;-26
2023/10/14 08:15:40;;;;;;;8.38;1.67;;;11.50;99.90;;;;;;5076276;28;20048;-25
2023/10/14 08:18:06;;;;;;;10.07;1.88;;;11.60;99.90;;;;;;5058113;28;20045;-26
2023/10/14 08:20:33;;;;;;;8.43;1.45;;;11.70;99.90;;;;;;5075350;28;20123;-25
2023/10/14 08:23:00;;;;;;;7.38;1.38;;;11.70;1.00;;;;;;5075654;28;20413;-25
2023/10/14 08:25:28;;;;;;;9.45;1.83;;;11.70;99.90;;;;;;5075653;28;20501;-25
2023/10/14 08:27:55;;;;;;;11.13;1.60;;;11.80;1.00;;;;;;5076158;28;20044;-26
2023/10/14 08:30:24;;;;;;;6.78;1.45;;;11.90;1.00;;;;;;5075853;28;20083;-26
2023/10/14 08:32:52;;;;;;;8.40;1.50;;;11.90;27.50;;;;;;5075749;28;20087;-26
2023/10/14 08:35:19;;;;;;;7.68;1.27;;;12.00;99.90;;;;;;5075643;28;20052;-26
2023/10/14 08:37:52;;;;;;;13.05;1.52;;;12.10;99.90;;;;;;5074447;28;20047;-26
2023/10/14 08:40:20;;;;;;;9.50;1.38;;;12.20;1.00;;;;;;5075372;28;20370;-26
2023/10/14 08:43:07;;;;;;;7.28;1.15;;;12.30;1.00;;;;;;5075595;28;20494;-26
2023/10/14 08:45:36;;;;;;;7.53;1.88;;;12.40;1.00;;;;;;5075622;28;20131;-26
2023/10/14 08:48:03;;;;;;;7.43;1.25;;;12.40;1.00;;;;;;5074785;28;20052;-26
2023/10/14 08:50:32;;;;;;;6.63;1.83;;;12.50;1.00;;;;;;5074872;28;20051;-26
2023/10/14 08:53:01;;;;;;;11.88;1.60;;;12.50;99.90;;;;;;5074146;28;20102;-26
2023/10/14 08:55:28;;;;;;;13.70;1.40;;;12.60;99.90;;;;;;5074993;28;20394;-25
2023/10/14 08:58:01;;;;;;;15.63;2.88;;;12.60;1.00;;;;;;5075298;28;20051;-26
2023/10/14 09:00:29;;;;;;;;;;;12.70;99.90;;;;;;5075601;28;20055;-26
2023/10/14 09:02:56;;;;;;;8.95;2.35;;;12.60;99.90;;;;;;5075212;28;19920;-26
2023/10/14 09:05:24;;;;;;;5.90;1.60;;;12.60;99.90;;;;;;5075123;28;20048;-25
2023/10/14 09:07:50;;;;;;;12.27;1.67;;;13.00;1.00;;;;;;5075668;28;20045;-27
2023/10/14 09:10:18;;;;;;;10.98;2.08;;;;;;;;;;5074935;28;20044;-27
2023/10/14 09:13:08;;;;;;;6.90;2.00;;;14.10;99.90;;;;;;5073967;28;20053;-26
2023/10/14 09:15:44;;;;;;;9.07;1.80;;;14.10;1.00;;;;;;5075482;28;20051;-27
2023/10/14 09:18:27;;;;;;;8.48;2.30;;;14.00;33.10;;;;;;5075436;28;20359;-25
2023/10/14 09:20:54;;;;;;;8.05;1.45;;;13.20;94.20;;;;;;5057817;28;20050;-26
2023/10/14 09:23:25;;;;;;;9.40;1.88;;;12.60;1.00;;;;;;5074753;28;20051;-26
2023/10/14 09:25:58;;;;;;;6.05;0.82;;;12.10;1.00;;;;;;5074446;28;20075;-25
2023/10/14 09:28:26;;;;;;;9.13;1.20;;;11.60;96.60;;;;;;5074798;28;20051;-25
2023/10/14 09:30:54;;;;;;;5.63;0.90;;;11.40;1.00;;;;;;5074209;28;20135;-26
2023/10/14 09:33:31;;;;;;;11.25;1.98;;;12.10;99.90;;;;;;5074544;28;20148;-26
2023/10/14 09:36:04;;;;;;;9.60;1.80;;;13.00;1.00;;;;;;5074505;28;20037;-26
2023/10/14 09:38:32;;;;;;;10.68;1.80;;;13.60;1.00;;;;;;5074717;28;20052;-27
2023/10/14 09:41:02;;;;;;;10.13;1.65;;;14.20;99.90;;;;;;5074059;28;20045;-26
2023/10/14 09:43:29;;;;;;;9.23;1.20;;;14.60;99.90;;;;;;5073565;28;20078;-26
2023/10/14 09:45:59;;;;;;;10.05;2.08;;;14.40;99.90;;;;;;5074311;28;20047;-26
2023/10/14 09:48:27;;;;;;;5.80;1.40;;;14.00;1.00;;;;;;5073108;28;20052;-25
2023/10/14 09:50:56;;;;;;;8.73;1.65;;;13.60;75.80;;;;;;5074235;28;20088;-25
2023/10/14 09:53:29;;;;;;;6.88;1.30;;;13.50;99.90;;;;;;5074172;28;20128;-26
2023/10/14 09:56:09;;;;;;;11.00;1.70;;;13.50;99.90;;;;;;5074208;28;20136;-25
2023/10/14 09:58:41;;;;;;;10.23;1.58;;;12.50;24.60;;;;;;5073766;28;20049;-25
2023/10/14 10:01:11;;;;;;;5.68;0.88;;;11.60;99.90;;;;;;5074081;28;20115;-24
2023/10/14 10:03:45;;;;;;;7.35;1.02;;;11.20;1.00;;;;;;5074910;28;20063;-24
2023/10/14 10:06:35;;;;;;;7.20;1.10;;;11.00;99.90;;;;;;5073980;28;20511;-24
2023/10/14 10:09:37;;;;;;;9.63;1.63;;;10.80;1.00;;;;;;5073666;28;20099;-24
2023/10/14 10:12:08;;;;;;;8.23;0.77;;;10.60;1.00;;;;;;5056546;28;20048;-24
2023/10/14 10:14:42;;;;;;;7.28;0.88;;;11.30;99.90;;;;;;5073519;28;20543;-25
2023/10/14 10:17:15;;;;;;;4.93;1.00;;;12.20;1.00;;;;;;5072690;28;20502;-25
2023/10/14 10:20:24;;;;;;;7.10;1.77;;;12.70;99.90;;;;;;5073878;28;20081;-25
2023/10/14 10:22:51;;;;;;;6.45;1.13;;;12.90;1.00;;;;;;5073541;28;20040;-25
2023/10/14 10:25:47;;;;;;;6.68;1.05;;;13.20;99.90;;;;;;5072632;28;20185;-25
2023/10/14 10:28:27;;;;;;;6.95;1.33;;;13.30;99.90;;;;;;5073522;28;20055;-25
2023/10/14 10:31:16;;;;;;;7.43;1.38;;;13.40;99.90;;;;;;5072532;28;20044;-26
2023/10/14 10:33:55;;;;;;;7.43;1.17;;;13.60;1.00;;;;;;5056077;28;20048;-25
2023/10/14 10:36:24;;;;;;;9.60;1.02;;;13.70;99.90;;;;;;5074463;28;20074;-27
2023/10/14 10:38:54;;;;;;;6.75;1.33;;;13.80;99.90;;;;;;5073638;28;20055;-25
2023/10/14 10:41:27;;;;;;;6.03;0.98;;;14.00;1.00;;;;;;5073604;28;20040;-26
2023/10/14 10:43:58;;;;;;;;;;;14.20;99.90;;;;;;5074602;28;20048;-25
2023/10/14 10:46:48;;;;;;;9.15;0.80;;;14.20;99.90;;;;;;5073289;28;20297;-25
2023/10/14 10:49:16;;;;;;;12.57;1.83;;;13.60;99.90;;;;;;5069499;28;20049;-24
2023/10/14 10:52:16;;;;;;;6.82;1.58;;;13.10;1.00;;;;;;5077695;28;20048;-24
2023/10/14 10:54:45;;;;;;;10.07;1.63;;;12.70;1.00;;;;;;5076688;28;20497;-25
2023/10/14 10:57:13;;;;;;;16.40;2.75;;;12.40;99.90;;;;;;5057446;28;20102;-26
2023/10/14 10:59:40;;;;;;;9.02;1.33;;;12.10;1.00;;;;;;5057999;28;20045;-24
2023/10/14 11:02:10;;;;;;;10.82;2.05;;;11.80;99.90;;;;;;5057463;28;20051;-25
2023/10/14 11:04:38;;;;;;;13.00;1.58;;;12.20;99.90;;;;;;5057958;28;20080;-24
2023/10/14 11:07:14;;;;;;;10.63;1.90;;;13.00;1.00;;;;;;5057617;28;20079;-25
2023/10/14 11:09:40;;;;;;;12.02;1.77;;;13.50;1.00;;;;;;5056138;28;20045;-27
2023/10/14 11:12:09;;;;;;;8.48;1.75;;;13.90;80.10;;;;;;5056315;28;20057;-25
2023/10/14 11:14:35;;;;;;;13.43;2.38;;;14.30;1.00;;;;;;5057233;28;20053;-25
2023/10/14 11:17:01;;;;;;;7.55;1.60;;;14.50;99.90;;;;;;5056502;28;20132;-24
2023/10/14 11:19:32;;;;;;;13.82;2.08;;;13.00;99.90;;;;;;5057411;28;20080;-23
2023/10/14 11:21:59;;;;;;;8.65;1.83;;;12.10;99.90;;;;;;5057363;28;20106;-24
2023/10/14 11:24:30;;;;;;;11.55;1.42;;;12.30;99.90;;;;;;5058158;28;20095;-24
2023/10/14 11:26:57;;;;;;;10.52;2.33;;;12.60;99.90;;;;;;5057591;28;20041;-24
2023/10/14 11:29:27;;;;;;;7.97;1.40;;;12.80;99.90;;;;;;5056971;28;20079;-24
2023/10/14 11:31:59;;;;;;;5.68;1.40;;;12.70;99.90;;;;;;5022980;28;20132;-24
2023/10/14 11:34:33;;;;;;;4.07;0.98;;;12.50;99.90;;;;;;5056972;28;20040;-24
2023/10/14 11:36:59;;;;;;;13.90;2.67;;;12.60;1.00;;;;;;5055595;28;20041;-24
2023/10/14 11:39:24;;;;;;;6.28;1.70;;;13.00;1.00;;;;;;5056756;28;20056;-24
2023/10/14 11:41:50;;;;;;;10.98;2.08;;;13.20;1.00;;;;;;5057015;28;20099;-24
2023/10/14 11:44:17;;;;;;;13.93;2.80;;;13.60;99.90;;;;;;5056723;28;20048;-24
2023/10/14 11:46:47;;;;;;;16.38;2.47;;;13.60;1.00;;;;;;5056227;28;20139;-24
2023/10/14 11:49:14;;;;;;;9.43;2.33;;;13.10;99.90;;;;;;5056621;28;20049;-24
2023/10/14 11:51:47;;;;;;;14.27;3.13;;;12.70;1.00;;;;;;5056545;28;20128;-24
2023/10/14 11:54:15;;;;;;;9.05;2.28;;;12.60;37.70;;;;;;5056848;28;20461;-24
2023/10/14 11:56:42;;;;;;;6.65;1.52;;;12.40;99.90;;;;;;5072352;28;20060;-24
2023/10/14 11:59:09;;;;;;;12.23;2.47;;;12.10;99.90;;;;;;5076393;28;20140;-24
2023/10/14 12:01:35;;;;;;;11.43;2.50;;;12.50;1.00;;;;;;5074566;28;20044;-24
2023/10/14 12:04:02;;;;;;;18.35;2.78;;;13.00;99.90;;;;;;5075969;28;20055;-24
2023/10/14 12:06:30;;;;;;;9.63;1.35;;;13.50;99.90;;;;;;5076357;28;20087;-24
2023/10/14 12:09:01;;;;;;;9.82;2.00;;;13.40;1.00;;;;;;5076043;28;20477;-24
2023/10/14 12:11:27;;;;;;;4.97;1.48;;;13.20;1.00;;;;;;5076261;28;20475;-24
2023/10/14 12:13:52;;;;;;;5.40;1.10;;;13.10;1.00;;;;;;5076700;28;20049;-24
2023/10/14 12:16:19;;;;;;;4.57;1.15;;;13.20;1.00;;;;;;5076063;28;20051;-24
2023/10/14 12:18:54;;;;;;;7.85;1.60;;;13.20;99.90;;;;;;5075168;28;20049;-24
2023/10/14 12:21:19;;;;;;;7.60;1.83;;;13.40;99.90;;;;;;5076088;28;20048;-24
2023/10/14 12:23:46;;;;;;;7.53;1.77;;;13.50;1.00;;;;;;5075607;28;20044;-24
2023/10/14 12:26:13;;;;;;;7.90;1.52;;;13.50;1.00;;;;;;5076496;28;20048;-24
2023/10/14 12:28:39;;;;;;;4.88;1.17;;;13.60;1.00;;;;;;5075925;28;20488;-24
2023/10/14 12:31:09;;;;;;;5.55;1.58;;;13.60;1.00;;;;;;5076616;28;20135;-24
2023/10/14 12:33:35;;;;;;;6.90;1.17;;;13.80;1.00;;;;;;5075204;28;20051;-24
2023/10/14 12:36:10;;;;;;;6.70;1.70;;;13.70;99.90;;;;;;5076462;28;20044;-23
2023/10/14 12:38:43;;;;;;;3.38;0.85;;;13.70;1.00;;;;;;5075815;28;20044;-24
2023/10/14 12:41:21;;;;;;;7.90;1.50;;;13.60;1.00;;;;;;5076322;28;20106;-24
2023/10/14 12:43:51;;;;;;;7.78;1.88;;;13.10;1.00;;;;;;5076290;28;20050;-24
2023/10/14 12:48:43;;;;;;;10.77;1.23;;;12.60;1.00;;;;;;5075496;28;20071;-24
2023/10/14 12:51:17;;;;;;;8.68;2.28;;;12.80;99.90;;;;;;5075475;28;20041;-23
2023/10/14 12:53:47;;;;;;;5.00;1.00;;;12.70;1.00;;;;;;5075490;28;20040;-23
2023/10/14 12:56:20;;;;;;;7.13;1.60;;;12.50;99.90;;;;;;5075578;28;20135;-24
2023/10/14 12:58:48;;;;;;;7.75;1.65;;;12.20;52.10;;;;;;5075967;28;20056;-23
2023/10/14 13:01:16;;;;;;;9.65;1.80;;;11.90;99.90;;;;;;5075245;28;20051;-23
2023/10/14 13:03:53;;;;;;;8.07;1.10;;;11.60;99.90;;;;;;5075205;28;20090;-23
2023/10/14 13:06:22;;;;;;;4.82;1.17;;;12.10;99.90;;;;;;5075299;28;20503;-23
2023/10/14 13:08:53;;;;;;;5.90;1.38;;;12.50;99.90;;;;;;5075085;28;20044;-23
2023/10/14 13:11:19;;;;;;;9.15;1.20;;;12.20;99.90;;;;;;5074801;28;20053;-23
2023/10/14 13:13:50;;;;;;;8.65;1.55;;;12.00;99.90;;;;;;5074880;28;20049;-24
2023/10/14 13:16:18;;;;;;;5.60;1.50;;;11.80;1.00;;;;;;5074934;28;20079;-23
2023/10/14 13:18:45;;;;;;;9.10;2.13;;;12.00;1.00;;;;;;5074920;28;20503;-23
2023/10/14 13:21:19;;;;;;;9.10;1.70;;;12.50;99.90;;;;;;5074826;28;20110;-24
2023/10/14 13:23:48;;;;;;;11.18;1.45;;;12.70;99.90;;;;;;5075693;28;20048;-23
2023/10/14 13:26:15;;;;;;;8.98;1.95;;;12.80;1.00;;;;;;5074737;28;20376;-24
2023/10/14 13:28:50;;;;;;;9.85;2.35;;;13.00;22.60;;;;;;5074768;28;20112;-23
2023/10/14 13:31:20;;;;;;;8.38;1.50;;;13.00;1.00;;;;;;5074485;28;20044;-24
2023/10/14 13:33:49;;;;;;;13.15;2.10;;;12.90;73.80;;;;;;5074617;28;20143;-24
2023/10/14 13:36:20;;;;;;;11.85;2.35;;;12.70;1.00;;;;;;5075297;28;20098;-23
2023/10/14 13:38:50;;;;;;;10.68;1.85;;;12.20;99.90;;;;;;5073361;28;20249;-23
2023/10/14 13:41:16;;;;;;;13.38;2.25;;;11.40;1.00;;;;;;5075033;28;20102;-23
2023/10/14 13:43:42;;;;;;;7.50;1.58;;;11.10;99.90;;;;;;5073976;28;20379;-23
2023/10/14 13:46:09;;;;;;;4.47;1.20;;;10.70;99.90;;;;;;5074351;28;20045;-23
2023/10/14 13:48:35;;;;;;;10.20;1.88;;;10.50;1.00;;;;;;5074263;28;20036;-23
2023/10/14 13:51:01;;;;;;;10.75;1.55;;;10.80;1.00;;;;;;5074206;28;20044;-23
2023/10/14 13:53:32;;;;;;;10.07;1.70;;;11.30;1.00;;;;;;5073071;28;20114;-23
2023/10/14 13:55:59;;;;;;;7.65;1.33;;;11.30;99.90;;;;;;5072898;28;20064;-24
2023/10/14 13:58:25;;;;;;;8.75;2.30;;;11.50;99.90;;;;;;5074154;28;20051;-23
2023/10/14 14:00:51;;;;;;;9.70;1.83;;;11.70;99.90;;;;;;5074606;28;20048;-23
2023/10/14 14:03:21;;;;;;;13.57;1.77;;;11.90;99.90;;;;;;5074061;28;20044;-23
2023/10/14 14:05:48;;;;;;;13.63;3.88;;;12.10;99.90;;;;;;5074588;28;20087;-23